sensor_id;sensor_type;location;lat;lon;timestamp;pressure;altitude;pressure_sealevel;temperature;humidity
3428;BME280;1727;42.624;23.406;2023-10-19T00:02:05;94962.09;;;10.52;94.39
3428;BME280;1727;42.624;23.406;2023-10-19T00:04:33;94956.00;;;10.51;94.66
3428;BME280;1727;42.624;23.406;2023-10-19T00:07:01;94949.81;;;10.52;93.79
3428;BME280;1727;42.624;23.406;2023-10-19T00:09:30;94951.72;;;10.50;95.04
3428;BME280;1727;42.624;23.406;2023-10-19T00:12:03;94948.25;;;10.50;95.18
3428;BME280;1727;42.624;23.406;2023-10-19T00:14:30;94945.25;;;10.54;93.41
3428;BME280;1727;42.624;23.406;2023-10-19T00:16:59;94940.84;;;10.55;92.97
3428;BME280;1727;42.624;23.406;2023-10-19T00:19:31;94937.25;;;10.56;93.29
3428;BME280;1727;42.624;23.406;2023-10-19T00:22:03;94943.19;;;10.58;93.56
3428;BME280;1727;42.624;23.406;2023-10-19T00:24:34;94934.50;;;10.58;93.04
3428;BME280;1727;42.624;23.406;2023-10-19T00:27:00;94929.94;;;10.60;93.34
3428;BME280;1727;42.624;23.406;2023-10-19T00:29:32;94925.22;;;10.53;93.77
3428;BME280;1727;42.624;23.406;2023-10-19T00:32:07;94923.16;;;10.57;94.36
3428;BME280;1727;42.624;23.406;2023-10-19T00:34:39;94927.16;;;10.51;94.08
3428;BME280;1727;42.624;23.406;2023-10-19T00:37:07;94925.50;;;10.50;94.65
3428;BME280;1727;42.624;23.406;2023-10-19T00:39:36;94926.31;;;10.51;94.95
3428;BME280;1727;42.624;23.406;2023-10-19T00:42:09;94921.31;;;10.48;95.52
3428;BME280;1727;42.624;23.406;2023-10-19T00:44:36;94910.84;;;10.48;95.65
3428;BME280;1727;42.624;23.406;2023-10-19T00:47:09;94910.19;;;10.55;95.41
3428;BME280;1727;42.624;23.406;2023-10-19T00:49:38;94915.16;;;10.59;95.69
3428;BME280;1727;42.624;23.406;2023-10-19T00:52:06;94911.44;;;10.61;94.42
3428;BME280;1727;42.624;23.406;2023-10-19T00:54:39;94913.78;;;10.54;94.14
3428;BME280;1727;42.624;23.406;2023-10-19T00:57:16;94913.34;;;10.49;93.24
3428;BME280;1727;42.624;23.406;2023-10-19T00:59:46;94918.72;;;10.48;92.80
3428;BME280;1727;42.624;23.406;2023-10-19T01:02:16;94922.81;;;10.41;91.90
3428;BME280;1727;42.624;23.406;2023-10-19T01:04:47;94916.97;;;10.37;92.48
3428;BME280;1727;42.624;23.406;2023-10-19T01:07:21;94922.06;;;10.18;91.81
3428;BME280;1727;42.624;23.406;2023-10-19T01:09:54;94928.56;;;10.03;91.82
3428;BME280;1727;42.624;23.406;2023-10-19T01:12:22;94922.16;;;9.96;92.09
3428;BME280;1727;42.624;23.406;2023-10-19T01:15:07;94919.53;;;9.96;91.68
3428;BME280;1727;42.624;23.406;2023-10-19T01:17:37;94922.16;;;9.96;92.40
3428;BME280;1727;42.624;23.406;2023-10-19T01:20:09;94923.50;;;9.79;92.21
3428;BME280;1727;42.624;23.406;2023-10-19T01:22:49;94923.31;;;9.71;93.30
3428;BME280;1727;42.624;23.406;2023-10-19T01:25:18;94923.19;;;9.72;92.55
3428;BME280;1727;42.624;23.406;2023-10-19T01:27:50;94931.63;;;9.76;93.36
3428;BME280;1727;42.624;23.406;2023-10-19T01:30:23;94919.81;;;9.81;92.97
3428;BME280;1727;42.624;23.406;2023-10-19T01:32:52;94922.31;;;9.83;93.26
3428;BME280;1727;42.624;23.406;2023-10-19T01:35:19;94918.63;;;9.85;93.73
3428;BME280;1727;42.624;23.406;2023-10-19T01:37:47;94913.13;;;9.88;94.44
3428;BME280;1727;42.624;23.406;2023-10-19T01:40:13;94915.88;;;9.87;96.01
3428;BME280;1727;42.624;23.406;2023-10-19T01:42:45;94911.81;;;9.94;95.67
3428;BME280;1727;42.624;23.406;2023-10-19T01:45:11;94912.38;;;9.98;95.52
3428;BME280;1727;42.624;23.406;2023-10-19T01:47:39;94923.56;;;10.00;95.27
3428;BME280;1727;42.624;23.406;2023-10-19T01:50:07;94923.06;;;10.06;95.41
3428;BME280;1727;42.624;23.406;2023-10-19T01:52:45;94927.22;;;10.08;94.57
3428;BME280;1727;42.624;23.406;2023-10-19T01:55:13;94913.28;;;10.08;94.75
3428;BME280;1727;42.624;23.406;2023-10-19T01:57:46;94919.22;;;10.10;94.49
3428;BME280;1727;42.624;23.406;2023-10-19T02:00:12;94919.81;;;10.13;94.04
3428;BME280;1727;42.624;23.406;2023-10-19T02:02:48;94919.00;;;10.13;94.23
3428;BME280;1727;42.624;23.406;2023-10-19T02:05:14;94920.66;;;10.14;93.27
3428;BME280;1727;42.624;23.406;2023-10-19T02:07:45;94914.59;;;10.13;94.40
3428;BME280;1727;42.624;23.406;2023-10-19T02:10:10;94917.06;;;10.15;93.88
3428;BME280;1727;42.624;23.406;2023-10-19T02:12:39;94913.75;;;10.13;93.35
3428;BME280;1727;42.624;23.406;2023-10-19T02:15:08;94917.28;;;10.12;93.68
3428;BME280;1727;42.624;23.406;2023-10-19T02:17:35;94913.28;;;10.08;93.18
3428;BME280;1727;42.624;23.406;2023-10-19T02:20:00;94920.44;;;10.06;94.37
3428;BME280;1727;42.624;23.406;2023-10-19T02:22:29;94919.72;;;10.04;94.03
3428;BME280;1727;42.624;23.406;2023-10-19T02:24:54;94922.47;;;10.02;93.58
3428;BME280;1727;42.624;23.406;2023-10-19T02:27:22;94924.13;;;10.03;93.54
3428;BME280;1727;42.624;23.406;2023-10-19T02:29:49;94936.81;;;9.98;95.04
3428;BME280;1727;42.624;23.406;2023-10-19T02:32:17;94930.16;;;9.94;94.59
3428;BME280;1727;42.624;23.406;2023-10-19T02:34:44;94926.19;;;10.00;95.00
3428;BME280;1727;42.624;23.406;2023-10-19T02:37:12;94933.09;;;10.01;95.27
3428;BME280;1727;42.624;23.406;2023-10-19T02:39:37;94927.16;;;9.99;94.80
3428;BME280;1727;42.624;23.406;2023-10-19T02:42:05;94924.28;;;10.02;94.80
3428;BME280;1727;42.624;23.406;2023-10-19T02:44:30;94919.97;;;10.01;93.98
3428;BME280;1727;42.624;23.406;2023-10-19T02:46:59;94930.91;;;10.06;93.88
3428;BME280;1727;42.624;23.406;2023-10-19T02:49:31;94922.09;;;10.07;93.93
3428;BME280;1727;42.624;23.406;2023-10-19T02:51:57;94928.03;;;10.09;93.69
3428;BME280;1727;42.624;23.406;2023-10-19T02:54:28;94920.06;;;10.10;93.53
3428;BME280;1727;42.624;23.406;2023-10-19T02:56:58;94930.66;;;10.09;92.83
3428;BME280;1727;42.624;23.406;2023-10-19T02:59:26;94928.59;;;9.91;94.43
3428;BME280;1727;42.624;23.406;2023-10-19T03:01:55;94921.41;;;9.73;96.74
3428;BME280;1727;42.624;23.406;2023-10-19T03:04:28;94921.31;;;9.63;97.50
3428;BME280;1727;42.624;23.406;2023-10-19T03:06:54;94916.22;;;9.61;97.99
3428;BME280;1727;42.624;23.406;2023-10-19T03:09:22;94914.16;;;9.65;98.71
3428;BME280;1727;42.624;23.406;2023-10-19T03:11:54;94910.09;;;9.72;98.59
3428;BME280;1727;42.624;23.406;2023-10-19T03:14:25;94909.34;;;9.81;98.47
3428;BME280;1727;42.624;23.406;2023-10-19T03:16:51;94907.19;;;9.86;97.34
3428;BME280;1727;42.624;23.406;2023-10-19T03:19:20;94911.09;;;9.92;96.92
3428;BME280;1727;42.624;23.406;2023-10-19T03:21:47;94910.84;;;9.95;97.56
3428;BME280;1727;42.624;23.406;2023-10-19T03:24:16;94904.63;;;9.96;97.19
3428;BME280;1727;42.624;23.406;2023-10-19T03:26:48;94908.59;;;9.90;96.75
3428;BME280;1727;42.624;23.406;2023-10-19T03:29:15;94908.84;;;9.87;97.59
3428;BME280;1727;42.624;23.406;2023-10-19T03:31:48;94916.03;;;9.74;96.54
3428;BME280;1727;42.624;23.406;2023-10-19T03:34:15;94909.38;;;9.70;96.55
3428;BME280;1727;42.624;23.406;2023-10-19T03:36:42;94908.72;;;9.57;97.88
3428;BME280;1727;42.624;23.406;2023-10-19T03:39:11;94906.03;;;9.36;97.27
3428;BME280;1727;42.624;23.406;2023-10-19T03:41:39;94898.41;;;9.22;97.38
3428;BME280;1727;42.624;23.406;2023-10-19T03:44:07;94897.03;;;9.07;98.02
3428;BME280;1727;42.624;23.406;2023-10-19T03:46:39;94902.16;;;9.08;98.04
3428;BME280;1727;42.624;23.406;2023-10-19T03:49:18;94901.69;;;9.03;97.84
3428;BME280;1727;42.624;23.406;2023-10-19T03:51:45;94890.84;;;9.08;98.81
3428;BME280;1727;42.624;23.406;2023-10-19T03:54:26;94894.75;;;9.13;98.84
3428;BME280;1727;42.624;23.406;2023-10-19T03:56:54;94890.47;;;9.12;99.04
3428;BME280;1727;42.624;23.406;2023-10-19T03:59:22;94892.72;;;9.17;100.00
3428;BME280;1727;42.624;23.406;2023-10-19T04:01:55;94891.09;;;9.05;99.89
3428;BME280;1727;42.624;23.406;2023-10-19T04:04:22;94895.00;;;9.10;100.00
3428;BME280;1727;42.624;23.406;2023-10-19T04:06:48;94879.75;;;9.15;100.00
3428;BME280;1727;42.624;23.406;2023-10-19T04:09:22;94892.59;;;9.18;100.00
3428;BME280;1727;42.624;23.406;2023-10-19T04:11:55;94887.25;;;9.20;100.00
3428;BME280;1727;42.624;23.406;2023-10-19T04:14:22;94893.69;;;9.27;100.00
3428;BME280;1727;42.624;23.406;2023-10-19T04:16:50;94884.78;;;9.07;100.00
3428;BME280;1727;42.624;23.406;2023-10-19T04:19:16;94877.88;;;9.06;100.00
3428;BME280;1727;42.624;23.406;2023-10-19T04:21:43;94887.72;;;9.14;100.00
3428;BME280;1727;42.624;23.406;2023-10-19T04:24:12;94879.97;;;9.23;100.00
3428;BME280;1727;42.624;23.406;2023-10-19T04:26:40;94885.31;;;9.33;99.86
3428;BME280;1727;42.624;23.406;2023-10-19T04:29:09;94882.47;;;9.36;100.00
3428;BME280;1727;42.624;23.406;2023-10-19T04:31:36;94888.28;;;9.40;99.11
3428;BME280;1727;42.624;23.406;2023-10-19T04:34:15;94886.63;;;9.39;99.68
3428;BME280;1727;42.624;23.406;2023-10-19T04:36:45;94887.81;;;9.35;98.89
3428;BME280;1727;42.624;23.406;2023-10-19T04:39:12;94880.31;;;9.41;99.29
3428;BME280;1727;42.624;23.406;2023-10-19T04:41:39;94882.78;;;9.43;98.83
3428;BME280;1727;42.624;23.406;2023-10-19T04:44:06;94878.06;;;9.37;98.60
3428;BME280;1727;42.624;23.406;2023-10-19T04:46:35;94872.94;;;9.24;97.66
3428;BME280;1727;42.624;23.406;2023-10-19T04:49:02;94877.13;;;9.26;99.21
3428;BME280;1727;42.624;23.406;2023-10-19T04:51:30;94875.94;;;9.30;98.55
3428;BME280;1727;42.624;23.406;2023-10-19T04:53:56;94868.53;;;9.24;98.90
3428;BME280;1727;42.624;23.406;2023-10-19T04:56:23;94874.72;;;9.23;98.49
3428;BME280;1727;42.624;23.406;2023-10-19T04:58:50;94878.00;;;9.05;98.11
3428;BME280;1727;42.624;23.406;2023-10-19T05:01:18;94876.09;;;8.95;98.78
3428;BME280;1727;42.624;23.406;2023-10-19T05:03:46;94870.72;;;9.08;99.10
3428;BME280;1727;42.624;23.406;2023-10-19T05:06:13;94868.22;;;9.18;98.48
3428;BME280;1727;42.624;23.406;2023-10-19T05:08:39;94874.03;;;9.32;98.43
3428;BME280;1727;42.624;23.406;2023-10-19T05:11:06;94869.00;;;9.41;98.00
3428;BME280;1727;42.624;23.406;2023-10-19T05:13:33;94880.88;;;9.56;98.12
3428;BME280;1727;42.624;23.406;2023-10-19T05:16:00;94880.34;;;9.94;96.91
3428;BME280;1727;42.624;23.406;2023-10-19T05:18:27;94880.44;;;10.45;94.39
3428;BME280;1727;42.624;23.406;2023-10-19T05:20:56;94876.47;;;10.81;90.94
3428;BME280;1727;42.624;23.406;2023-10-19T05:23:24;94883.09;;;11.26;90.14
3428;BME280;1727;42.624;23.406;2023-10-19T05:25:53;94896.53;;;12.01;86.50
3428;BME280;1727;42.624;23.406;2023-10-19T05:28:20;94895.59;;;12.78;83.02
3428;BME280;1727;42.624;23.406;2023-10-19T05:30:48;94892.84;;;13.44;79.78
3428;BME280;1727;42.624;23.406;2023-10-19T05:33:15;94901.03;;;14.04;76.72
3428;BME280;1727;42.624;23.406;2023-10-19T05:35:46;94904.59;;;14.48;74.46
3428;BME280;1727;42.624;23.406;2023-10-19T05:38:14;94896.63;;;14.92;72.44
3428;BME280;1727;42.624;23.406;2023-10-19T05:40:41;94898.56;;;15.16;71.29
3428;BME280;1727;42.624;23.406;2023-10-19T05:43:09;94906.69;;;15.23;69.51
3428;BME280;1727;42.624;23.406;2023-10-19T05:45:37;94898.69;;;15.40;69.90
3428;BME280;1727;42.624;23.406;2023-10-19T05:48:04;94911.06;;;15.74;67.91
3428;BME280;1727;42.624;23.406;2023-10-19T05:50:32;94903.44;;;15.63;67.64
3428;BME280;1727;42.624;23.406;2023-10-19T05:52:58;94907.59;;;15.65;67.98
3428;BME280;1727;42.624;23.406;2023-10-19T05:55:27;94903.91;;;15.58;68.76
3428;BME280;1727;42.624;23.406;2023-10-19T05:57:54;94905.31;;;15.44;67.59
3428;BME280;1727;42.624;23.406;2023-10-19T06:00:22;94911.19;;;15.30;68.50
3428;BME280;1727;42.624;23.406;2023-10-19T06:02:51;94908.72;;;15.03;68.95
3428;BME280;1727;42.624;23.406;2023-10-19T06:05:28;94903.41;;;14.95;71.33
3428;BME280;1727;42.624;23.406;2023-10-19T06:07:56;94908.91;;;14.75;71.67
3428;BME280;1727;42.624;23.406;2023-10-19T06:10:27;94911.69;;;14.48;72.55
3428;BME280;1727;42.624;23.406;2023-10-19T06:13:00;94911.56;;;14.40;73.22
3428;BME280;1727;42.624;23.406;2023-10-19T06:15:29;94911.75;;;14.20;73.81
3428;BME280;1727;42.624;23.406;2023-10-19T06:17:57;94909.25;;;14.01;74.93
3428;BME280;1727;42.624;23.406;2023-10-19T06:20:24;94905.94;;;13.54;75.55
3428;BME280;1727;42.624;23.406;2023-10-19T06:22:52;94901.03;;;13.41;77.31
3428;BME280;1727;42.624;23.406;2023-10-19T06:25:31;94903.53;;;13.06;79.19
3428;BME280;1727;42.624;23.406;2023-10-19T06:28:00;94901.28;;;12.64;80.29
3428;BME280;1727;42.624;23.406;2023-10-19T06:30:27;94903.94;;;12.74;81.65
3428;BME280;1727;42.624;23.406;2023-10-19T06:32:55;94909.06;;;12.75;82.43
3428;BME280;1727;42.624;23.406;2023-10-19T06:35:26;94892.28;;;12.76;84.77
3428;BME280;1727;42.624;23.406;2023-10-19T06:37:54;94896.38;;;12.88;86.81
3428;BME280;1727;42.624;23.406;2023-10-19T06:40:21;94888.19;;;12.91;87.98
3428;BME280;1727;42.624;23.406;2023-10-19T06:42:49;94891.06;;;12.98;89.61
3428;BME280;1727;42.624;23.406;2023-10-19T06:45:17;94894.28;;;13.01;88.61
3428;BME280;1727;42.624;23.406;2023-10-19T06:47:45;94890.75;;;13.11;87.53
3428;BME280;1727;42.624;23.406;2023-10-19T06:50:14;94889.00;;;13.01;85.64
3428;BME280;1727;42.624;23.406;2023-10-19T06:52:42;94882.34;;;12.97;85.69
3428;BME280;1727;42.624;23.406;2023-10-19T06:55:10;94883.44;;;13.05;88.24
3428;BME280;1727;42.624;23.406;2023-10-19T06:57:40;94891.16;;;13.16;85.78
3428;BME280;1727;42.624;23.406;2023-10-19T07:00:11;94892.56;;;13.10;84.07
3428;BME280;1727;42.624;23.406;2023-10-19T07:02:43;94895.50;;;13.07;83.03
3428;BME280;1727;42.624;23.406;2023-10-19T07:05:11;94895.88;;;13.12;83.63
3428;BME280;1727;42.624;23.406;2023-10-19T07:07:41;94887.16;;;13.12;83.54
3428;BME280;1727;42.624;23.406;2023-10-19T07:10:15;94871.88;;;13.15;84.15
3428;BME280;1727;42.624;23.406;2023-10-19T07:12:44;94878.03;;;12.96;82.06
3428;BME280;1727;42.624;23.406;2023-10-19T07:15:15;94872.56;;;12.80;83.35
3428;BME280;1727;42.624;23.406;2023-10-19T07:17:45;94871.25;;;12.94;85.09
3428;BME280;1727;42.624;23.406;2023-10-19T07:20:16;94868.56;;;13.13;85.88
3428;BME280;1727;42.624;23.406;2023-10-19T07:22:51;94874.34;;;13.17;83.04
3428;BME280;1727;42.624;23.406;2023-10-19T07:25:17;94876.88;;;13.18;84.29
3428;BME280;1727;42.624;23.406;2023-10-19T07:27:47;94883.97;;;13.18;83.91
3428;BME280;1727;42.624;23.406;2023-10-19T07:30:15;94890.91;;;13.09;81.90
3428;BME280;1727;42.624;23.406;2023-10-19T07:32:47;94874.34;;;13.17;84.04
3428;BME280;1727;42.624;23.406;2023-10-19T07:35:19;94880.19;;;13.20;84.22
3428;BME280;1727;42.624;23.406;2023-10-19T07:37:47;94876.13;;;13.26;84.03
3428;BME280;1727;42.624;23.406;2023-10-19T07:40:15;94877.38;;;13.31;82.48
3428;BME280;1727;42.624;23.406;2023-10-19T07:42:43;94882.22;;;13.36;82.28
3428;BME280;1727;42.624;23.406;2023-10-19T07:45:10;94893.31;;;13.57;83.10
3428;BME280;1727;42.624;23.406;2023-10-19T07:47:39;94888.03;;;13.57;80.90
3428;BME280;1727;42.624;23.406;2023-10-19T07:50:07;94881.78;;;13.58;81.72
3428;BME280;1727;42.624;23.406;2023-10-19T07:52:40;94885.38;;;13.57;81.75
3428;BME280;1727;42.624;23.406;2023-10-19T07:55:10;94896.16;;;13.46;82.77
3428;BME280;1727;42.624;23.406;2023-10-19T07:57:37;94893.59;;;13.27;80.95
3428;BME280;1727;42.624;23.406;2023-10-19T08:00:10;94884.06;;;13.16;82.76
3428;BME280;1727;42.624;23.406;2023-10-19T08:02:40;94885.47;;;13.20;82.69
3428;BME280;1727;42.624;23.406;2023-10-19T08:05:10;94891.78;;;13.37;85.29
3428;BME280;1727;42.624;23.406;2023-10-19T08:07:38;94886.75;;;13.44;83.50
3428;BME280;1727;42.624;23.406;2023-10-19T08:10:08;94890.34;;;13.43;81.48
3428;BME280;1727;42.624;23.406;2023-10-19T08:12:36;94900.53;;;13.55;81.51
3428;BME280;1727;42.624;23.406;2023-10-19T08:15:04;94894.50;;;13.45;81.66
3428;BME280;1727;42.624;23.406;2023-10-19T08:17:32;94905.28;;;13.52;81.48
3428;BME280;1727;42.624;23.406;2023-10-19T08:20:00;94900.19;;;13.68;83.14
3428;BME280;1727;42.624;23.406;2023-10-19T08:22:29;94891.69;;;13.92;81.97
3428;BME280;1727;42.624;23.406;2023-10-19T08:24:56;94886.78;;;14.15;80.02
3428;BME280;1727;42.624;23.406;2023-10-19T08:27:23;94883.63;;;14.47;80.49
3428;BME280;1727;42.624;23.406;2023-10-19T08:29:50;94895.94;;;14.64;78.67
3428;BME280;1727;42.624;23.406;2023-10-19T08:32:17;94898.47;;;15.00;78.87
3428;BME280;1727;42.624;23.406;2023-10-19T08:34:44;94892.41;;;15.41;77.01
3428;BME280;1727;42.624;23.406;2023-10-19T08:37:12;94895.88;;;15.76;76.72
3428;BME280;1727;42.624;23.406;2023-10-19T08:39:40;94893.59;;;15.97;73.30
3428;BME280;1727;42.624;23.406;2023-10-19T08:42:09;94896.09;;;16.07;72.33
3428;BME280;1727;42.624;23.406;2023-10-19T08:44:35;94902.03;;;16.09;70.43
3428;BME280;1727;42.624;23.406;2023-10-19T08:47:03;94893.44;;;16.15;70.59
3428;BME280;1727;42.624;23.406;2023-10-19T08:49:30;94886.00;;;16.19;70.72
3428;BME280;1727;42.624;23.406;2023-10-19T08:51:58;94892.44;;;16.16;69.44
3428;BME280;1727;42.624;23.406;2023-10-19T08:54:27;94896.91;;;16.16;70.24
3428;BME280;1727;42.624;23.406;2023-10-19T08:56:54;94886.66;;;16.13;71.99
3428;BME280;1727;42.624;23.406;2023-10-19T08:59:21;94893.09;;;16.10;72.86
3428;BME280;1727;42.624;23.406;2023-10-19T09:01:48;94888.47;;;16.12;72.62
3428;BME280;1727;42.624;23.406;2023-10-19T09:04:15;94896.75;;;16.09;70.88
3428;BME280;1727;42.624;23.406;2023-10-19T09:06:42;94890.31;;;16.20;71.95
3428;BME280;1727;42.624;23.406;2023-10-19T09:09:11;94885.03;;;16.36;70.82
3428;BME280;1727;42.624;23.406;2023-10-19T09:11:43;94882.69;;;16.41;70.98
3428;BME280;1727;42.624;23.406;2023-10-19T09:14:12;94886.34;;;16.40;69.94
3428;BME280;1727;42.624;23.406;2023-10-19T09:16:53;94868.81;;;16.23;69.60
3428;BME280;1727;42.624;23.406;2023-10-19T09:19:21;94866.50;;;16.20;69.90
3428;BME280;1727;42.624;23.406;2023-10-19T09:21:48;94864.00;;;16.34;70.46
3428;BME280;1727;42.624;23.406;2023-10-19T09:24:15;94863.50;;;16.31;69.62
3428;BME280;1727;42.624;23.406;2023-10-19T09:26:43;94858.06;;;16.49;71.03
3428;BME280;1727;42.624;23.406;2023-10-19T09:29:13;94861.50;;;16.65;70.70
3428;BME280;1727;42.624;23.406;2023-10-19T09:31:44;94853.41;;;16.67;69.07
3428;BME280;1727;42.624;23.406;2023-10-19T09:34:13;94847.47;;;16.32;68.73
3428;BME280;1727;42.624;23.406;2023-10-19T09:36:43;94842.97;;;16.17;69.63
3428;BME280;1727;42.624;23.406;2023-10-19T09:39:10;94828.09;;;16.07;71.94
3428;BME280;1727;42.624;23.406;2023-10-19T09:41:39;94826.31;;;15.41;72.70
3428;BME280;1727;42.624;23.406;2023-10-19T09:44:09;94820.47;;;15.30;73.40
3428;BME280;1727;42.624;23.406;2023-10-19T09:46:40;94813.91;;;15.42;73.84
3428;BME280;1727;42.624;23.406;2023-10-19T09:49:07;94813.75;;;15.52;73.96
3428;BME280;1727;42.624;23.406;2023-10-19T09:51:37;94812.09;;;15.50;72.89
3428;BME280;1727;42.624;23.406;2023-10-19T09:54:11;94811.31;;;15.58;74.38
3428;BME280;1727;42.624;23.406;2023-10-19T09:56:42;94801.28;;;15.62;73.33
3428;BME280;1727;42.624;23.406;2023-10-19T09:59:22;94798.63;;;15.70;73.79
3428;BME280;1727;42.624;23.406;2023-10-19T10:02:10;94791.03;;;15.75;74.77
3428;BME280;1727;42.624;23.406;2023-10-19T10:04:38;94792.00;;;15.82;75.42
3428;BME280;1727;42.624;23.406;2023-10-19T10:07:10;94802.59;;;15.82;74.98
3428;BME280;1727;42.624;23.406;2023-10-19T10:09:39;94790.34;;;15.89;74.57
3428;BME280;1727;42.624;23.406;2023-10-19T10:12:19;94788.06;;;15.94;73.70
3428;BME280;1727;42.624;23.406;2023-10-19T10:15:00;94774.00;;;16.02;75.35
3428;BME280;1727;42.624;23.406;2023-10-19T10:17:29;94788.06;;;16.10;74.46
3428;BME280;1727;42.624;23.406;2023-10-19T10:20:30;94775.81;;;16.09;74.07
3428;BME280;1727;42.624;23.406;2023-10-19T10:23:16;94769.84;;;16.16;75.67
3428;BME280;1727;42.624;23.406;2023-10-19T10:25:47;94772.16;;;16.27;76.42
3428;BME280;1727;42.624;23.406;2023-10-19T10:28:14;94775.28;;;16.38;77.47
3428;BME280;1727;42.624;23.406;2023-10-19T10:31:14;94773.25;;;16.57;76.14
3428;BME280;1727;42.624;23.406;2023-10-19T10:33:45;94761.66;;;16.66;72.41
3428;BME280;1727;42.624;23.406;2023-10-19T10:36:13;94758.81;;;16.84;73.17
3428;BME280;1727;42.624;23.406;2023-10-19T10:38:40;94752.47;;;16.93;72.70
3428;BME280;1727;42.624;23.406;2023-10-19T10:41:07;94758.72;;;17.00;72.56
3428;BME280;1727;42.624;23.406;2023-10-19T10:43:53;94742.28;;;17.04;72.88
3428;BME280;1727;42.624;23.406;2023-10-19T10:46:23;94744.06;;;17.20;74.01
3428;BME280;1727;42.624;23.406;2023-10-19T10:48:51;94738.41;;;17.23;71.07
3428;BME280;1727;42.624;23.406;2023-10-19T10:51:19;94724.13;;;17.24;71.35
3428;BME280;1727;42.624;23.406;2023-10-19T10:53:49;94722.41;;;17.40;71.94
3428;BME280;1727;42.624;23.406;2023-10-19T10:56:17;94717.56;;;17.43;71.79
3428;BME280;1727;42.624;23.406;2023-10-19T10:58:45;94711.19;;;17.52;72.08
3428;BME280;1727;42.624;23.406;2023-10-19T11:01:12;94710.94;;;17.62;72.31
3428;BME280;1727;42.624;23.406;2023-10-19T11:03:41;94707.47;;;17.70;71.66
3428;BME280;1727;42.624;23.406;2023-10-19T11:06:09;94703.09;;;17.77;71.81
3428;BME280;1727;42.624;23.406;2023-10-19T11:08:37;94696.22;;;17.82;71.37
3428;BME280;1727;42.624;23.406;2023-10-19T11:11:06;94693.03;;;17.87;70.50
3428;BME280;1727;42.624;23.406;2023-10-19T11:13:33;94681.13;;;17.60;69.23
3428;BME280;1727;42.624;23.406;2023-10-19T11:16:03;94675.13;;;17.66;69.70
3428;BME280;1727;42.624;23.406;2023-10-19T11:18:32;94679.09;;;17.62;71.01
3428;BME280;1727;42.624;23.406;2023-10-19T11:21:03;94672.50;;;17.58;71.53
3428;BME280;1727;42.624;23.406;2023-10-19T11:23:39;94666.75;;;17.77;71.62
3428;BME280;1727;42.624;23.406;2023-10-19T11:26:06;94654.31;;;17.92;73.21
3428;BME280;1727;42.624;23.406;2023-10-19T11:28:34;94656.00;;;17.93;71.25
3428;BME280;1727;42.624;23.406;2023-10-19T11:31:14;94654.34;;;18.07;72.35
3428;BME280;1727;42.624;23.406;2023-10-19T11:33:42;94650.59;;;18.16;73.18
3428;BME280;1727;42.624;23.406;2023-10-19T11:36:11;94648.88;;;18.23;71.13
3428;BME280;1727;42.624;23.406;2023-10-19T11:38:40;94635.75;;;18.37;70.96
3428;BME280;1727;42.624;23.406;2023-10-19T11:41:07;94645.41;;;18.52;70.88
3428;BME280;1727;42.624;23.406;2023-10-19T11:43:34;94638.50;;;18.58;70.71
3428;BME280;1727;42.624;23.406;2023-10-19T11:46:02;94638.97;;;18.62;69.34
3428;BME280;1727;42.624;23.406;2023-10-19T11:48:31;94626.78;;;18.67;68.54
3428;BME280;1727;42.624;23.406;2023-10-19T11:50:58;94622.38;;;18.74;70.04
3428;BME280;1727;42.624;23.406;2023-10-19T11:53:28;94625.50;;;18.63;67.91
3428;BME280;1727;42.624;23.406;2023-10-19T11:55:58;94617.69;;;18.47;68.14
3428;BME280;1727;42.624;23.406;2023-10-19T11:58:26;94615.16;;;18.53;69.78
3428;BME280;1727;42.624;23.406;2023-10-19T12:00:53;94615.16;;;18.53;69.00
3428;BME280;1727;42.624;23.406;2023-10-19T12:03:20;94612.31;;;18.55;68.39
3428;BME280;1727;42.624;23.406;2023-10-19T12:05:47;94606.44;;;18.60;68.58
3428;BME280;1727;42.624;23.406;2023-10-19T12:08:14;94607.91;;;18.62;69.06
3428;BME280;1727;42.624;23.406;2023-10-19T12:10:42;94607.06;;;18.62;67.37
3428;BME280;1727;42.624;23.406;2023-10-19T12:13:09;94619.63;;;18.68;70.29
3428;BME280;1727;42.624;23.406;2023-10-19T12:15:35;94608.19;;;18.67;68.75
3428;BME280;1727;42.624;23.406;2023-10-19T12:18:03;94603.59;;;18.61;67.74
3428;BME280;1727;42.624;23.406;2023-10-19T12:20:31;94608.75;;;18.63;67.90
3428;BME280;1727;42.624;23.406;2023-10-19T12:22:58;94604.88;;;18.65;69.01
3428;BME280;1727;42.624;23.406;2023-10-19T12:25:26;94594.78;;;18.61;66.49
3428;BME280;1727;42.624;23.406;2023-10-19T12:27:58;94593.16;;;18.60;66.39
3428;BME280;1727;42.624;23.406;2023-10-19T12:30:25;94597.81;;;18.57;67.44
3428;BME280;1727;42.624;23.406;2023-10-19T12:33:00;94594.44;;;18.64;66.11
3428;BME280;1727;42.624;23.406;2023-10-19T12:35:26;94593.06;;;18.68;67.44
3428;BME280;1727;42.624;23.406;2023-10-19T12:38:10;94589.44;;;18.75;68.00
3428;BME280;1727;42.624;23.406;2023-10-19T12:40:42;94583.41;;;18.81;67.58
3428;BME280;1727;42.624;23.406;2023-10-19T12:43:11;94585.59;;;18.78;66.15
3428;BME280;1727;42.624;23.406;2023-10-19T12:45:38;94585.16;;;18.74;66.28
3428;BME280;1727;42.624;23.406;2023-10-19T12:48:05;94575.16;;;18.76;66.61
3428;BME280;1727;42.624;23.406;2023-10-19T12:50:34;94578.53;;;18.85;67.43
3428;BME280;1727;42.624;23.406;2023-10-19T12:53:01;94575.13;;;18.91;66.73
3428;BME280;1727;42.624;23.406;2023-10-19T12:55:28;94571.84;;;18.89;65.90
3428;BME280;1727;42.624;23.406;2023-10-19T12:57:56;94564.47;;;18.91;65.42
3428;BME280;1727;42.624;23.406;2023-10-19T13:00:29;94560.44;;;18.95;66.95
3428;BME280;1727;42.624;23.406;2023-10-19T13:03:01;94559.41;;;18.96;66.63
3428;BME280;1727;42.624;23.406;2023-10-19T13:05:32;94551.06;;;18.99;66.13
3428;BME280;1727;42.624;23.406;2023-10-19T13:08:01;94553.59;;;19.07;67.95
3428;BME280;1727;42.624;23.406;2023-10-19T13:10:31;94555.50;;;19.13;65.96
3428;BME280;1727;42.624;23.406;2023-10-19T13:13:03;94558.22;;;19.20;66.52
3428;BME280;1727;42.624;23.406;2023-10-19T13:15:33;94565.00;;;19.23;64.70
3428;BME280;1727;42.624;23.406;2023-10-19T13:18:01;94552.47;;;19.16;64.39
3428;BME280;1727;42.624;23.406;2023-10-19T13:20:28;94540.41;;;19.21;64.46
3428;BME280;1727;42.624;23.406;2023-10-19T13:22:59;94544.91;;;19.20;64.87
3428;BME280;1727;42.624;23.406;2023-10-19T13:25:26;94544.28;;;19.18;63.99